Bullfrog, Utah
Current Conditions -  °F | °C
As of 9:35 PM on Thursday 18 Dec 2014 (Local Time) from KBDG Reporting Station
Clear Clear  
Wind Chill: 21°   Ceiling: Unl
Heat Index: 28°   Visibility: 10mi
Dew Point: 27°   Wind: 6mph
Humidity: 97%   Direction: 340°NNW
Pressure: 30.25"   Gusts: NA
Location:  37.6208°N, 109.479°W
Report Text: KBDG 190435Z AUTO 34005KT 10SM CLR M02/M03 A3025 RMK AO1 T10251029
Loading
Personal Weather Stations






























Interactive Weather Map New forecast layout! Learn more

10-Day Weather Forecast

Advertisements
Track Severe Weather on mobile